Tiempo atmosférico en la estación meteorológica de Salobreña, Granada (20 m.)



Fecha
DESCASC
Temp. máxima en grados centígrados (hora)
DESCASC
Temp. mínima en grados centígrados (hora)
DESCASC
Temp. media en grados centígrados
DESCASC
Racha de viento máxima en m/sg (hora)
DESCASC
Velocidad máxima media en intervalos de 10 minutos(hora)
DESCASC
Precipitaciones diarias en mm
DESCASC
Precipitaciones de 00:00 a 06:00 en mm
DESCASC
Precipitaciones de 06:00 a 12:00 en mm
DESCASC
Precipitaciones de 12:00 a 18:00 en mm
DESCASC
Precipitaciones de 18:00 a 24:00 en mm
DESCASC
23-05-2018 24.8 (14:40) 14.3 (05:00) 19.5 5.56 (19:00) 3.61 (13:30) 0 0 0 0 0
22-05-2018 23.2 (16:00) 13.3 (06:50) 18.3 6.39 (14:50) 3.61 (15:00) 0 0 0 0 0
21-05-2018 22.2 (14:20) 14.1 (04:20) 18.2 9.17 (19:50) 4.44 (17:50) 0 0 0 0 0
20-05-2018 22.1 (16:50) 13.9 (00:00) 18 5.83 (12:50) 3.33 (12:40) 0 0 0 0 0
19-05-2018 22.4 (16:10) 13.3 (00:00) 17.8 5.28 (17:00) 3.06 (11:00) 0 0 0 0 0
18-05-2018 20.8 (16:40) 12.4 (00:00) 16.6 5.28 (13:40) 3.33 (14:00) 0 0 0 0 0
17-05-2018 21.6 (18:10) 12.7 (00:00) 17.2 6.11 (16:50) 3.61 (16:10) 0 0 0 0 0
16-05-2018 23.2 (14:10) 12.7 (00:00) 18 8.33 (16:40) 4.72 (16:40) 0 0 0 0 0
15-05-2018 23.2 (13:20) 12.5 (00:00) 17.9 8.06 (14:30) 5 (14:00) 0 0 0 0 0
14-05-2018 21.9 (17:20) 11.3 (00:00) 16.6 6.11 (02:20) 3.61 (13:20) 0 0 0 0 0
13-05-2018 22.8 (11:20) 13.9 (00:00) 18.3 16.11 (04:30) 9.72 (04:40) 0 0 0 0 0
12-05-2018 23 (21:10) 13.2 (00:00) 18.1 15.28 (22:40) 8.33 (22:20) 0 0 0 0 0
11-05-2018 22.2 (13:00) 14.4 (06:50) 18.3 7.22 (18:50) 3.61 (17:50) 0 0 0 0 0
10-05-2018 21 (13:20) 16.3 (00:00) 18.6 9.72 (16:40) 5 (15:50) 0 0 0 0 0
09-05-2018 22.7 (14:20) 15.2 (00:00) 19 10.28 (15:30) 5 (15:30) 0 0 0 0 0
08-05-2018 21.7 (19:30) 13.8 (00:00) 17.8 7.5 (10:50) 3.61 (13:20) 0 0 0 0 0
07-05-2018 22 (14:10) 15.2 (00:00) 18.6 9.17 (15:30) 4.17 (15:20) 2.2 0.2 2 0 0
06-05-2018 22.4 (16:30) 12.3 (00:00) 17.3 9.72 (14:20) 5.83 (14:20) 0 0 0 0 0
05-05-2018 21.4 (18:10) 12.2 (00:00) 16.8 4.72 (16:20) 3.33 (15:50) 0 0 0 0 0
04-05-2018 22.8 (12:50) 12.7 (00:00) 17.7 9.72 (12:50) 5.56 (13:20) 0 0 0 0 0
03-05-2018 21.9 (11:00) 13.3 (00:00) 17.6 9.17 (18:00) 5 (06:20) 0 0 0 0 0
02-05-2018 19.2 (17:50) 10.1 (00:00) 14.7 8.61 (17:40) 4.44 (14:00) 0 0 0 0 0
01-05-2018 19 (12:10) 10.4 (23:40) 14.7 15.83 (16:20) 8.89 (16:20) 1.6 0 0 1.6 0
30-04-2018 18.7 (13:20) 8.4 (00:00) 13.6 13.06 (17:30) 6.94 (17:20) 0 0 0 0 0
29-04-2018 19.5 (15:50) 12.5 (00:00) 16 15.83 (12:40) 7.78 (18:20) 0 0 0 0 0
28-04-2018 20.6 (12:20) 12.3 (00:00) 16.5 13.61 (15:10) 7.22 (15:10) 0 0 0 0 0
27-04-2018 22 (18:10) 13.6 (00:00) 17.8 10.83 (12:40) 4.72 (14:20) 0 0 0 0 0
26-04-2018 19.8 (12:00) 14.3 (00:00) 17 5 (12:10) 2.78 (12:00) 0.2 0.2 0 0 0
25-04-2018 18.2 (11:50) 15.8 (00:00) 17 8.33 (00:50) 4.44 (01:00) 4.4 0 3.4 0.8 0.2

Gráficas

Temp. máximas Temp. mínimas Temp. medias Precipitaciones Rachas de viento máximas Velocidades máximas media en intervalos de 10 minutos

Datos horarios

Fecha y hora oficial Temperatura (ºC) Velocidad del viento (km/h) Dirección del viento Racha (km/h) Dirección de racha Precipitación (mm) Presión (hPa) Tendencia (hPa) Humedad (%)
2018-05-24 23:00:00 20.1 9 Oeste 27 Oeste 0 -- -- 72
2018-05-24 22:00:00 20.9 5 Noroeste 17 Oeste 0 -- -- 69
2018-05-24 21:00:00 21.7 8 Oeste 25 Noroeste 0 -- -- 64
2018-05-24 20:00:00 22.1 15 Oeste 44 Oeste 0 -- -- 63
2018-05-24 19:00:00 22.5 17 Oeste 36 Oeste 0 -- -- 62
2018-05-24 18:00:00 23.2 15 Oeste 39 Oeste 0 -- -- 60
2018-05-24 17:00:00 23.2 14 Oeste 38 Noroeste 0 -- -- 58
2018-05-24 16:00:00 24 13 Oeste 35 Oeste 0 -- -- 57
2018-05-24 15:00:00 23.7 17 Oeste 48 Sudoeste 0 -- -- 60
2018-05-24 14:00:00 23.4 15 Oeste 36 Sudoeste 0 -- -- 59
2018-05-24 13:00:00 23.2 14 Oeste 38 Oeste 0 -- -- 60
2018-05-24 12:00:00 22.7 16 Oeste 33 Oeste 0 -- -- 59
2018-05-24 11:00:00 21.9 10 Sudoeste 23 Sudoeste 0 -- -- 66
2018-05-24 10:00:00 21.6 7 Sudoeste 13 Sudoeste 0 -- -- 57
2018-05-24 09:00:00 18.8 3 Norte 9 Nordeste 0 -- -- 69
2018-05-24 08:00:00 16.6 5 Nordeste 7 Norte 0 -- -- 79
2018-05-24 07:00:00 16.4 2 Noroeste 7 Norte 0 -- -- 81
2018-05-24 06:00:00 17 0 Calma 5 Nordeste 0 -- -- 78
2018-05-24 05:00:00 17.2 2 Sur 11 Norte 0 -- -- 75
2018-05-24 04:00:00 17.3 5 Norte 6 Norte 0 -- -- 80
2018-05-24 03:00:00 18.3 0 Calma 11 Nordeste 0 -- -- 72
2018-05-24 02:00:00 19.4 5 Nordeste 15 Nordeste 0 -- -- 64
2018-05-24 01:00:00 17.9 9 Norte 12 Norte 0 -- -- 72
2018-05-24 00:00:00 18.6 5 Norte 6 Norte 0 -- -- 74
2018-05-23 23:00:00 20.5 2 Nordeste 9 Oeste 0 -- -- 68
2018-05-23 22:00:00 21.1 4 Sudoeste 8 Oeste 0 -- -- 62
2018-05-23 21:00:00 22.5 3 Noroeste 12 Sudoeste 0 -- -- 56
2018-05-23 20:00:00 23.3 8 Sudoeste 18 Oeste 0 -- -- 49
2018-05-23 19:00:00 23.6 9 Oeste 20 Oeste 0 -- -- 60
2018-05-23 18:00:00 24.5 6 Oeste 15 Oeste 0 -- -- 50
2018-05-23 17:00:00 24.6 7 Oeste 16 Sudoeste 0 -- -- 49
2018-05-23 16:00:00 23.7 8 Sudoeste 16 Oeste 0 -- -- 58
2018-05-23 15:00:00 24.4 9 Sudoeste 14 Sur 0 -- -- 55
2018-05-23 14:00:00 24.3 9 Sudoeste 17 Sur 0 -- -- 54
2018-05-23 13:00:00 23.9 5 Sudoeste 13 Sur 0 -- -- 56
2018-05-23 12:00:00 20.9 0 Calma 8 Norte 0 -- -- 72
2018-05-23 11:00:00 19.9 5 Noroeste 9 Noroeste 0 -- -- 78
2018-05-23 10:00:00 19.8 4 Sudoeste 14 Nordeste 0 -- -- 73
2018-05-23 09:00:00 18.7 2 Norte 5 Nordeste 0 -- -- 71
2018-05-23 08:00:00 17.2 0 Calma 11 Nordeste 0 -- -- 75
2018-05-23 07:00:00 16 2 Este 15 Nordeste 0 -- -- 79
2018-05-23 06:00:00 14.5 9 Nordeste 11 Nordeste 0 -- -- 86
2018-05-23 05:00:00 14.3 6 Norte 8 Norte 0 -- -- 87
2018-05-23 04:00:00 15.2 2 Nordeste 12 Norte 0 -- -- 85
2018-05-23 03:00:00 15.3 3 Nordeste 8 Nordeste 0 -- -- 85
2018-05-23 02:00:00 15.9 5 Norte 8 Norte 0 -- -- 83
2018-05-23 01:00:00 16.3 4 Norte 6 Norte 0 -- -- 84
2018-05-23 00:00:00 17.3 0 Calma 5 Sur 0 -- -- 85
2018-05-22 23:00:00 18.4 2 Noroeste 6 Norte 0 -- -- 79
2018-05-22 22:00:00 19.4 5 Norte 10 Norte 0 -- -- 75
2018-05-22 21:00:00 21.1 0 Calma 8 Sudoeste 0 -- -- 70
2018-05-22 20:00:00 21.7 5 Sudoeste 19 Sudoeste 0 -- -- 68
2018-05-22 19:00:00 22.2 11 Sudoeste 18 Sudoeste 0 -- -- 68
2018-05-22 18:00:00 22.9 10 Sudoeste 22 Sudoeste 0 -- -- 64
2018-05-22 17:00:00 22.5 12 Sudoeste 22 Sudoeste 0 -- -- 63
2018-05-22 16:00:00 23.2 10 Sudoeste 20 Sudoeste 0 -- -- 61
2018-05-22 15:00:00 21.8 13 Sudoeste 23 Sudoeste 0 -- -- 67
2018-05-22 14:00:00 22.5 12 Sudoeste 19 Sudoeste 0 -- -- 63
2018-05-22 13:00:00 22.6 10 Sudoeste 17 Sur 0 -- -- 64
2018-05-22 12:00:00 21.4 7 Sudoeste 16 Oeste 0 -- -- 71
2018-05-22 11:00:00 20.9 9 Sudoeste 16 Sudoeste 0 -- -- 71
2018-05-22 10:00:00 19.5 6 Sudoeste 14 Sur 0 -- -- 78
2018-05-22 09:00:00 17.9 2 Noroeste 11 Norte 0 -- -- 82
2018-05-22 08:00:00 15.8 3 Nordeste 14 Nordeste 0 -- -- 79
2018-05-22 07:00:00 13.3 5 Norte 8 Nordeste 0 -- -- 91
2018-05-22 06:00:00 13.6 4 Norte 10 Nordeste 0 -- -- 89
2018-05-22 05:00:00 14 3 Norte 7 Norte 0 -- -- 90
2018-05-22 04:00:00 14.5 5 Norte 10 Nordeste 0 -- -- 88
2018-05-22 03:00:00 14.7 7 Norte 10 Norte 0 -- -- 90
2018-05-22 02:00:00 15.6 5 Nordeste 9 Sudoeste 0 -- -- 91
2018-05-22 01:00:00 15.5 4 Noroeste 8 Noroeste 0 -- -- 89
2018-05-22 00:00:00 16.5 6 Nordeste 8 Nordeste 0 -- -- 87
2018-05-21 23:00:00 17.1 5 Norte 6 Norte 0 -- -- 86
2018-05-21 22:00:00 18.8 0 Calma 15 Oeste 0 -- -- 81
2018-05-21 21:00:00 19.6 8 Oeste 26 Oeste 0 -- -- 76
2018-05-21 20:00:00 20.1 12 Oeste 33 Sudoeste 0 -- -- 79
2018-05-21 19:00:00 20.5 15 Sudoeste 30 Sudoeste 0 -- -- 75
2018-05-21 18:00:00 21.2 16 Sudoeste 27 Sudoeste 0 -- -- 70
2018-05-21 17:00:00 21.6 14 Sudoeste 24 Sudoeste 0 -- -- 72
2018-05-21 16:00:00 21.8 11 Sudoeste 22 Oeste 0 -- -- 67
2018-05-21 15:00:00 21.7 10 Sudoeste 21 Sudoeste 0 -- -- 72
2018-05-21 14:00:00 21.8 8 Oeste 20 Sudoeste 0 -- -- 72
2018-05-21 13:00:00 21.3 10 Sudoeste 19 Sudoeste 0 -- -- 72
2018-05-21 12:00:00 21.1 10 Sudoeste 18 Sudoeste 0 -- -- 71
2018-05-21 11:00:00 20.7 8 Sudoeste 13 Oeste 0 -- -- 71
2018-05-21 10:00:00 18.7 5 Sur 10 Sur 0 -- -- 74
2018-05-21 09:00:00 16.2 0 Calma 8 Nordeste 0 -- -- 85
2018-05-21 08:00:00 14.9 6 Nordeste 9 Nordeste 0 -- -- 86
2018-05-21 07:00:00 14.4 7 Nordeste 10 Nordeste 0 -- -- 88
2018-05-21 06:00:00 14.2 6 Nordeste 10 Nordeste 0 -- -- 90
2018-05-21 05:00:00 14.1 5 Norte 8 Nordeste 0 -- -- 92
2018-05-21 04:00:00 14.4 3 Nordeste 8 Nordeste 0 -- -- 92
2018-05-21 03:00:00 14.4 5 Nordeste 9 Nordeste 0 -- -- 91
2018-05-21 02:00:00 14.9 6 Nordeste 9 Norte 0 -- -- 90
2018-05-21 01:00:00 15.3 3 Norte 8 Norte 0 -- -- 89
2018-05-21 00:00:00 15.9 6 Nordeste 9 Norte 0 -- -- 87
2018-05-20 23:00:00 16.6 5 Nordeste 8 Nordeste 0 -- -- 86
2018-05-20 22:00:00 17.8 0 Calma 4 Sudeste 0 -- -- 83
2018-05-20 21:00:00 19.1 2 Sur 15 Sudoeste 0 -- -- 77
2018-05-20 20:00:00 19.6 9 Sudoeste 17 Sudoeste 0 -- -- 75
2018-05-20 19:00:00 20.1 10 Sudoeste 19 Oeste 0 -- -- 73
2018-05-20 18:00:00 21.2 10 Sudoeste 17 Sudoeste 0 -- -- 70
2018-05-20 17:00:00 21.8 8 Sudoeste 15 Sudoeste 0 -- -- 61
2018-05-20 16:00:00 20.6 8 Sudoeste 15 Sudoeste 0 -- -- 74
2018-05-20 15:00:00 20.6 8 Oeste 19 Sudoeste 0 -- -- 75
2018-05-20 14:00:00 21.4 10 Sudoeste 19 Sudoeste 0 -- -- 72
2018-05-20 13:00:00 20.8 12 Sudoeste 21 Sudoeste 0 -- -- 73
2018-05-20 12:00:00 21 11 Sur 18 Sur 0 -- -- 71
2018-05-20 11:00:00 20.2 9 Sur 15 Sur 0 -- -- 75
2018-05-20 10:00:00 18.9 4 Sudoeste 10 Sudoeste 0 -- -- 81
2018-05-20 09:00:00 16.7 2 Nordeste 9 Nordeste 0 -- -- 79
2018-05-20 08:00:00 15 3 Nordeste 12 Nordeste 0 -- -- 86
2018-05-20 07:00:00 14.1 0 Calma 13 Nordeste 0 -- -- 86
2018-05-20 06:00:00 14.5 8 Nordeste 10 Nordeste 0 -- -- 88
2018-05-20 05:00:00 14.7 3 Nordeste 10 Nordeste 0 -- -- 88
2018-05-20 04:00:00 15.1 5 Nordeste 9 Nordeste 0 -- -- 87
2018-05-20 03:00:00 15.4 4 Nordeste 7 Nordeste 0 -- -- 87
2018-05-20 02:00:00 16 4 Norte 8 Norte 0 -- -- 86
2018-05-20 01:00:00 16.8 4 Nordeste 8 Nordeste 0 -- -- 85
2018-05-20 00:00:00 16.8 6 Norte 9 Norte 0 -- -- 83
2018-05-19 23:00:00 16.9 4 Norte 8 Nordeste 0 -- -- 83
2018-05-19 22:00:00 17.7 5 Norte 7 Norte 0 -- -- 80
2018-05-19 21:00:00 19.2 3 Noroeste 10 Noroeste 0 -- -- 75
2018-05-19 20:00:00 19.7 3 Sudoeste 14 Sudoeste 0 -- -- 71
2018-05-19 19:00:00 20.6 7 Oeste 15 Sudoeste 0 -- -- 71
2018-05-19 18:00:00 21.2 8 Sudoeste 15 Oeste 0 -- -- 68
2018-05-19 17:00:00 21.1 10 Sudoeste 19 Sudoeste 0 -- -- 69
2018-05-19 16:00:00 22.1 10 Sudoeste 19 Sur 0 -- -- 66
2018-05-19 15:00:00 21.8 9 Oeste 18 Sudoeste 0 -- -- 67
2018-05-19 14:00:00 21.5 7 Sudoeste 17 Oeste 0 -- -- 69
2018-05-19 13:00:00 21.1 8 Sudoeste 16 Sudoeste 0 -- -- 67
2018-05-19 12:00:00 20.6 9 Sudoeste 16 Sudoeste 0 -- -- 70
2018-05-19 11:00:00 20 11 Sudoeste 17 Sudoeste 0 -- -- 69
2018-05-19 10:00:00 18.7 5 Sur 8 Sur 0 -- -- 71
2018-05-19 09:00:00 16.1 0 Calma 9 Nordeste 0 -- -- 82
2018-05-19 08:00:00 13.8 3 Nordeste 9 Nordeste 0 -- -- 92
2018-05-19 07:00:00 13.6 6 Nordeste 9 Nordeste 0 -- -- 92
2018-05-19 06:00:00 14.3 2 Nordeste 8 Nordeste 0 -- -- 92
2018-05-19 05:00:00 15.1 3 Nordeste 8 Nordeste 0 -- -- 91
2018-05-19 04:00:00 16.2 0 Calma 4 Nordeste 0 -- -- 91
2018-05-19 03:00:00 16.6 0 Calma 4 Norte 0 -- -- 90
2018-05-19 02:00:00 16.9 3 Nordeste 4 Nordeste 0 -- -- 88
2018-05-19 01:00:00 17.3 0 Calma 7 Oeste 0 -- -- 86
2018-05-19 00:00:00 18 4 Noroeste 8 Noroeste 0 -- -- 84
2018-05-18 23:00:00 18.5 4 Sudoeste 8 Sudoeste 0 -- -- 80
2018-05-18 22:00:00 18.2 0 Calma 5 Sur 0 -- -- 82
2018-05-18 21:00:00 19.3 3 Sur 8 Sur 0 -- -- 74
2018-05-18 20:00:00 19.7 4 Sur 8 Sur 0 -- -- 71
2018-05-18 19:00:00 19.4 3 Sur 9 Sudeste 0 -- -- 72
2018-05-18 18:00:00 19.6 5 Sur 14 Sur 0 -- -- 70
2018-05-18 17:00:00 20.7 5 Sur 15 Sudoeste 0 -- -- 65
2018-05-18 16:00:00 19.7 6 Sudoeste 16 Sudoeste 0 -- -- 72
2018-05-18 15:00:00 20.6 8 Sudoeste 18 Sudoeste 0 -- -- 72
2018-05-18 14:00:00 20.6 12 Sudoeste 19 Sudoeste 0 -- -- 70
2018-05-18 13:00:00 20.5 10 Sudoeste 18 Sudoeste 0 -- -- 69
2018-05-18 12:00:00 20.4 8 Sudoeste 17 Sudoeste 0 -- -- 67
2018-05-18 11:00:00 18.9 9 Sur 15 Sur 0 -- -- 74
2018-05-18 10:00:00 18.1 8 Sur 12 Sudoeste 0 -- -- 82
2018-05-18 09:00:00 15.2 0 Calma 4 Norte 0 -- -- 89
2018-05-18 08:00:00 12.9 2 Nordeste 6 Nordeste 0 -- -- 93
2018-05-18 07:00:00 12.5 5 Norte 9 Nordeste 0 -- -- 91
2018-05-18 06:00:00 13.2 7 Nordeste 11 Norte 0 -- -- 91
2018-05-18 05:00:00 13.4 6 Norte 10 Norte 0 -- -- 91
2018-05-18 04:00:00 14 6 Nordeste 8 Norte 0 -- -- 90
2018-05-18 03:00:00 14.7 3 Norte 7 Nordeste 0 -- -- 89
2018-05-18 02:00:00 15.8 4 Norte 8 Noroeste 0 -- -- 86
2018-05-18 01:00:00 17.4 2 Oeste 6 Sudoeste 0 -- -- 79
2018-05-18 00:00:00 18 3 Sudoeste 8 Sudoeste 0 -- -- 78
2018-05-17 23:00:00 18.1 5 Sur 14 Sudeste 0 -- -- 71
2018-05-17 22:00:00 18.2 3 Sudeste 12 Sudeste 0 -- -- 74
2018-05-17 21:00:00 18.5 3 Sudoeste 14 Sudoeste 0 -- -- 75
2018-05-17 20:00:00 19.7 7 Sudoeste 17 Sudoeste 0 -- -- 68
2018-05-17 19:00:00 20.9 7 Oeste 18 Sudoeste 0 -- -- 56
2018-05-17 18:00:00 21.4 9 Oeste 21 Oeste 0 -- -- 54
2018-05-17 17:00:00 20.2 11 Oeste 22 Noroeste 0 -- -- 57
2018-05-17 16:00:00 20.7 12 Sudoeste 22 Sudoeste 0 -- -- 53
2018-05-17 15:00:00 19.1 9 Sudoeste 17 Sudoeste 0 -- -- 60
2018-05-17 14:00:00 19.5 5 Sudoeste 14 Sur 0 -- -- 59
2018-05-17 13:00:00 19.9 11 Sudoeste 18 Sur 0 -- -- 59
2018-05-17 12:00:00 20 12 Sur 22 Sur 0 -- -- 58
2018-05-17 11:00:00 20.7 5 Sudoeste 12 Sudeste 0 -- -- 47
2018-05-17 10:00:00 19.5 5 Sudoeste 10 Sudoeste 0 -- -- 46
2018-05-17 09:00:00 16.5 0 Calma 6 Norte 0 -- -- 61
2018-05-17 08:00:00 13.5 6 Nordeste 11 Nordeste 0 -- -- 75
2018-05-17 07:00:00 12.7 6 Norte 9 Norte 0 -- -- 79
2018-05-17 06:00:00 13.6 5 Norte 9 Norte 0 -- -- 72
2018-05-17 05:00:00 15.1 7 Norte 10 Sudeste 0 -- -- 73
2018-05-17 04:00:00 17.6 8 Oeste 19 Noroeste 0 -- -- 56
2018-05-17 03:00:00 16.7 3 Norte 13 Nordeste 0 -- -- 62
2018-05-17 02:00:00 15.9 4 Nordeste 10 Nordeste 0 -- -- 65
2018-05-17 01:00:00 16.8 8 Norte 13 Norte 0 -- -- 57
2018-05-17 00:00:00 17.6 5 Norte 17 Oeste 0 -- -- 54
2018-05-16 23:00:00 18.9 9 Oeste 23 Noroeste 0 -- -- 49
2018-05-16 22:00:00 19 6 Oeste 16 Oeste 0 -- -- 54
2018-05-16 21:00:00 20.2 8 Oeste 19 Oeste 0 -- -- 46
2018-05-16 20:00:00 21.8 7 Oeste 24 Sur 0 -- -- 41
2018-05-16 19:00:00 22.9 14 Sur 24 Sur 0 -- -- 35
2018-05-16 18:00:00 22.8 12 Oeste 25 Oeste 0 -- -- 40
2018-05-16 17:00:00 22.3 15 Sudoeste 30 Sudoeste 0 -- -- 42
2018-05-16 16:00:00 22.7 13 Sur 28 Sur 0 -- -- 43
2018-05-16 15:00:00 22.4 10 Sudoeste 26 Sur 0 -- -- 44
2018-05-16 14:00:00 23 15 Sur 25 Sur 0 -- -- 38
2018-05-16 13:00:00 22.1 16 Sur 25 Sudeste 0 -- -- 45
2018-05-16 12:00:00 22.1 12 Sur 21 Sur 0 -- -- 43
2018-05-16 11:00:00 21.3 13 Sur 25 Sur 0 -- -- 42
2018-05-16 10:00:00 18.7 5 Sudeste 18 Sudoeste 0 -- -- 49
2018-05-16 09:00:00 15.7 3 Nordeste 13 Nordeste 0 -- -- 69
2018-05-16 08:00:00 13.4 9 Nordeste 14 Nordeste 0 -- -- 77
2018-05-16 07:00:00 12.8 9 Nordeste 13 Nordeste 0 -- -- 79
2018-05-16 06:00:00 13 6 Nordeste 11 Nordeste 0 -- -- 78
2018-05-16 05:00:00 12.9 6 Norte 10 Nordeste 0 -- -- 78
2018-05-16 04:00:00 13.2 6 Nordeste 9 Norte 0 -- -- 76
2018-05-16 03:00:00 13.8 4 Norte 13 Nordeste 0 -- -- 73
2018-05-16 02:00:00 14.1 8 Nordeste 11 Nordeste 0 -- -- 72
2018-05-16 01:00:00 14 7 Nordeste 9 Norte 0 -- -- 74
2018-05-16 00:00:00 14.3 3 Norte 6 Norte 0 -- -- 73
2018-05-15 23:00:00 15.5 0 Calma 5 Norte 0 -- -- 70
2018-05-15 22:00:00 16.9 4 Norte 6 Noroeste 0 -- -- 69
2018-05-15 21:00:00 19 4 Noroeste 10 Sudoeste 0 -- -- 61
2018-05-15 20:00:00 19.7 8 Sudoeste 13 Sur 0 -- -- 63
2018-05-15 19:00:00 20.8 6 Sudoeste 17 Sur 0 -- -- 47
2018-05-15 18:00:00 21.6 7 Sudoeste 19 Sudoeste 0 -- -- 54
2018-05-15 17:00:00 22.4 10 Sudoeste 26 Sur 0 -- -- 49
2018-05-15 16:00:00 22.4 17 Sur 28 Sur 0 -- -- 49
2018-05-15 15:00:00 23.2 16 Sur 29 Sur 0 -- -- 39
2018-05-15 14:00:00 23.2 18 Sur 28 Sur 0 -- -- 33
2018-05-15 13:00:00 22.6 17 Sur 26 Sur 0 -- -- 32
2018-05-15 12:00:00 21.8 17 Sur 26 Sur 0 -- -- 34
2018-05-15 11:00:00 22.2 13 Sur 24 Sur 0 -- -- 25
2018-05-15 10:00:00 18.8 0 Calma 11 Nordeste 0 -- -- 36
2018-05-15 09:00:00 16.6 3 Nordeste 14 Nordeste 0 -- -- 47
2018-05-15 08:00:00 14.3 7 Nordeste 14 Nordeste 0 -- -- 52
2018-05-15 07:00:00 12.6 8 Nordeste 14 Nordeste 0 -- -- 52
2018-05-15 06:00:00 13 8 Nordeste 11 Norte 0 -- -- 51
2018-05-15 05:00:00 14 9 Nordeste 16 Nordeste 0 -- -- 48
2018-05-15 04:00:00 13.6 8 Nordeste 14 Nordeste 0 -- -- 48
2018-05-15 03:00:00 14.2 5 Norte 12 Nordeste 0 -- -- 50
2018-05-15 02:00:00 15.9 4 Nordeste 18 Nordeste 0 -- -- 43
2018-05-15 01:00:00 16.2 8 Nordeste 13 Nordeste 0 -- -- 40
2018-05-15 00:00:00 14.8 5 Nordeste 10 Nordeste 0 -- -- 50
2018-05-14 23:00:00 14.8 7 Norte 10 Norte 0 -- -- 50
2018-05-14 22:00:00 16.3 5 Norte 6 Norte 0 -- -- 51
2018-05-14 21:00:00 19.2 0 Calma 9 Sur 0 -- -- 48
2018-05-14 20:00:00 20.4 6 Sur 12 Sudoeste 0 -- -- 47
2018-05-14 19:00:00 20.9 6 Sudoeste 15 Sudoeste 0 -- -- 43
2018-05-14 18:00:00 21.5 10 Sudoeste 15 Sudoeste 0 -- -- 40
2018-05-14 17:00:00 20.9 11 Sudoeste 17 Sudoeste 0 -- -- 43
2018-05-14 16:00:00 20.9 9 Sudoeste 17 Sudoeste 0 -- -- 43
2018-05-14 15:00:00 21.2 10 Sur 17 Sur 0 -- -- 41
2018-05-14 14:00:00 20.8 11 Sudoeste 18 Sur 0 -- -- 42
2018-05-14 13:00:00 21 10 Sur 17 Sur 0 -- -- 45
2018-05-14 12:00:00 20.7 9 Sur 16 Sur 0 -- -- 42
2018-05-14 11:00:00 20.3 10 Sur 15 Sur 0 -- -- 41
2018-05-14 10:00:00 19.1 8 Sur 11 Sur 0 -- -- 39
2018-05-14 09:00:00 16.6 3 Nordeste 17 Nordeste 0 -- -- 42
2018-05-14 08:00:00 13.3 9 Nordeste 14 Nordeste 0 -- -- 55
2018-05-14 07:00:00 11.3 7 Norte 10 Nordeste 0 -- -- 69
2018-05-14 06:00:00 13.1 6 Nordeste 13 Nordeste 0 -- -- 57
2018-05-14 05:00:00 13.7 5 Nordeste 12 Nordeste 0 -- -- 56
2018-05-14 04:00:00 13.5 4 Nordeste 12 Norte 0 -- -- 58
2018-05-14 03:00:00 14.7 9 Norte 22 Nordeste 0 -- -- 51
2018-05-14 02:00:00 15.2 5 Nordeste 19 Nordeste 0 -- -- 47
2018-05-14 01:00:00 14.7 10 Nordeste 16 Nordeste 0 -- -- 50
2018-05-11 20:00:00 -- -- -- -- -- -- -- -- --
2018-05-11 19:00:00 20.2 12 Sudoeste 26 Sudoeste 0 -- -- 76
2018-05-11 18:00:00 20.7 12 Sudoeste 22 Sudoeste 0 -- -- 74
2018-05-11 17:00:00 21.6 10 Sudoeste 19 Oeste 0 -- -- 72
2018-05-11 16:00:00 21.4 10 Oeste 18 Sudoeste 0 -- -- 72
2018-05-11 15:00:00 21.2 9 Oeste 18 Sudoeste 0 -- -- 74
2018-05-11 14:00:00 22.1 8 Sudoeste 18 Sudoeste 0 -- -- 71
2018-05-11 13:00:00 22.2 9 Sudoeste 19 Sudoeste 0 -- -- 70
2018-05-11 12:00:00 20.9 11 Sudoeste 17 Sudoeste 0 -- -- 73
2018-05-11 11:00:00 20.6 8 Sudoeste 14 Sur 0 -- -- 74
2018-05-11 10:00:00 19.2 7 Sudoeste 10 Sur 0 -- -- 81
2018-05-11 09:00:00 16.6 3 Norte 9 Nordeste 0 -- -- 92
2018-05-11 08:00:00 15.1 7 Nordeste 9 Nordeste 0 -- -- 95
2018-05-11 07:00:00 14.5 5 Nordeste 8 Nordeste 0 -- -- 95
2018-05-11 06:00:00 14.7 3 Norte 6 Norte 0 -- -- 94
2018-05-11 05:00:00 15.7 4 Nordeste 8 Nordeste 0 -- -- 93
2018-05-11 04:00:00 16.4 0 Calma 6 Norte 0 -- -- 93
2018-05-11 03:00:00 16.1 4 Norte 5 Norte 0 -- -- 93
2018-05-11 02:00:00 16.2 0 Calma 5 Sudeste 0 -- -- 92
2018-05-11 01:00:00 16.1 0 Calma 9 Nordeste 0 -- -- 89
2018-05-11 00:00:00 16.3 0 Calma 9 Nordeste 0 -- -- 89
2018-05-10 23:00:00 17 4 Nordeste 10 Nordeste 0 -- -- 88
2018-05-10 22:00:00 17.8 0 Calma 7 Oeste 0 -- -- 84
2018-05-10 21:00:00 19.1 5 Oeste 9 Noroeste 0 -- -- 77
2018-05-10 20:00:00 20.3 6 Sur 13 Oeste 0 -- -- 73
2018-05-10 19:00:00 21 7 Oeste 26 Oeste 0 -- -- 70
2018-05-10 18:00:00 20.4 14 Oeste 32 Noroeste 0 -- -- 72
2018-05-10 17:00:00 20.8 17 Oeste 35 Oeste 0 -- -- 70
2018-05-10 16:00:00 20.8 15 Oeste 33 Noroeste 0 -- -- 71
2018-05-10 15:00:00 20.7 18 Oeste 33 Noroeste 0 -- -- 73
2018-05-10 14:00:00 20.6 14 Oeste 31 Oeste 0 -- -- 74
2018-05-10 13:00:00 20.7 17 Oeste 31 Oeste 0 -- -- 72
2018-05-10 12:00:00 20.7 14 Oeste 28 Oeste 0 -- -- 73
2018-05-10 11:00:00 19.1 13 Oeste 34 Noroeste 0 -- -- 76
2018-05-10 10:00:00 18.5 14 Oeste 30 Oeste 0 -- -- 80
2018-05-10 09:00:00 18.1 9 Oeste 24 Oeste 0 -- -- 78
2018-05-10 08:00:00 17.2 7 Oeste 17 Oeste 0 -- -- 84
2018-05-10 07:00:00 17 8 Noroeste 20 Oeste 0 -- -- 86
2018-05-10 06:00:00 17.5 11 Oeste 25 Oeste 0 -- -- 85
2018-05-10 05:00:00 17.8 9 Oeste 23 Noroeste 0 -- -- 84
2018-05-10 04:00:00 17.6 4 Norte 27 Oeste 0 -- -- 87
2018-05-10 03:00:00 18.4 12 Oeste 26 Oeste 0 -- -- 83
2018-05-10 02:00:00 18.8 9 Noroeste 18 Noroeste 0 -- -- 82
2018-05-10 01:00:00 19.1 6 Noroeste 34 Sudoeste 0 -- -- 81
2018-05-10 00:00:00 19.3 12 Oeste 27 Noroeste 0 -- -- 84
2018-05-09 23:00:00 18.6 3 Oeste 10 Norte 0 -- -- 88
2018-05-09 22:00:00 18.8 2 Noroeste 9 Norte 0 -- -- 87
2018-05-09 21:00:00 20.1 8 Sur 17 Oeste 0 -- -- 82
2018-05-09 20:00:00 21.3 6 Sudoeste 17 Sudoeste 0 -- -- 75
2018-05-09 19:00:00 21 4 Sur 13 Sudoeste 0 -- -- 76
2018-05-09 18:00:00 20.8 10 Oeste 31 Oeste 0 -- -- 76
2018-05-09 17:00:00 22.2 17 Oeste 36 Sudoeste 0 -- -- 70
2018-05-09 16:00:00 22.2 15 Sudoeste 37 Oeste 0 -- -- 70
2018-05-09 15:00:00 22.5 15 Oeste 31 Oeste 0 -- -- 70
2018-05-09 14:00:00 22.4 13 Sudoeste 23 Oeste 0 -- -- 71
2018-05-09 13:00:00 21.9 8 Sudoeste 19 Sudoeste 0 -- -- 74
2018-05-09 12:00:00 21.4 8 Sudoeste 16 Sudoeste 0 -- -- 76
2018-05-09 11:00:00 21 7 Sudoeste 14 Sudoeste 0 -- -- 76
2018-05-09 10:00:00 19.2 5 Sudoeste 9 Sudoeste 0 -- -- 92
2018-05-09 09:00:00 17.1 3 Sur 5 Sudeste 0 -- -- 98
2018-05-09 08:00:00 15.4 3 Nordeste 6 Norte 0 -- -- 96
2018-05-09 07:00:00 16.1 3 Norte 8 Sudoeste 0 -- -- 94
2018-05-09 06:00:00 15.8 0 Calma 6 Norte 0 -- -- 94
2018-05-09 05:00:00 16 4 Norte 8 Norte 0 -- -- 94
2018-05-09 04:00:00 16.8 5 Nordeste 6 Norte 0 -- -- 92
2018-05-09 03:00:00 17.9 3 Oeste 26 Oeste 0 -- -- 89
2018-05-09 02:00:00 18.1 8 Oeste 22 Noroeste 0 -- -- 92
2018-05-09 01:00:00 18 2 Noroeste 9 Noroeste 0 -- -- 92
2018-05-09 00:00:00 18.2 3 Norte 14 Sur 0 -- -- 90
2018-05-08 23:00:00 18.3 0 Calma 6 Nordeste 0 -- -- 89
2018-05-08 22:00:00 18.1 3 Nordeste 7 Nordeste 0 -- -- 90
2018-05-08 21:00:00 18.8 5 Sur 15 Sur 0 -- -- 86
2018-05-08 20:00:00 19.7 8 Sur 16 Sudoeste 0 -- -- 82
2018-05-08 19:00:00 20.9 2 Oeste 8 Norte 0 -- -- 71
2018-05-08 18:00:00 20 5 Sudoeste 14 Sudoeste 0 -- -- 74
2018-05-08 17:00:00 20.3 9 Sudoeste 19 Sur 0 -- -- 77
2018-05-08 16:00:00 21 13 Sudoeste 22 Sudoeste 0 -- -- 74
2018-05-08 15:00:00 20.8 12 Sudoeste 22 Sudoeste 0 -- -- 75
2018-05-08 14:00:00 20 13 Sudoeste 23 Sudoeste 0 -- -- 77
2018-05-08 13:00:00 20.3 12 Sudoeste 22 Sudoeste 0 -- -- 77
2018-05-08 12:00:00 20.1 12 Sudoeste 25 Sur 0 -- -- 72
2018-05-08 11:00:00 19.5 12 Oeste 27 Oeste 0 -- -- 75
2018-05-08 10:00:00 18.2 3 Sudoeste 10 Oeste 0 -- -- 76
2018-05-08 09:00:00 17 3 Noroeste 13 Oeste 0 -- -- 79
2018-05-08 08:00:00 15.7 4 Noroeste 10 Oeste 0 -- -- 88
2018-05-08 07:00:00 14.5 3 Noroeste 8 Nordeste 0 -- -- 90
2018-05-08 06:00:00 13.8 8 Norte 9 Norte 0 -- -- 89
2018-05-08 05:00:00 14.8 0 Calma 10 Noroeste 0 -- -- 84
2018-05-08 04:00:00 16 0 Calma 13 Nordeste 0 -- -- 82
2018-05-08 03:00:00 15.7 3 Nordeste 11 Nordeste 0 -- -- 84
2018-05-08 02:00:00 15.7 8 Nordeste 12 Nordeste 0 -- -- 84
2018-05-08 01:00:00 15.8 8 Nordeste 13 Nordeste 0 -- -- 85
2018-05-08 00:00:00 15.9 5 Norte 8 Nordeste 0 -- -- 85
2018-05-07 23:00:00 16.3 5 Norte 9 Norte 0 -- -- 84
2018-05-07 22:00:00 17.9 2 Nordeste 15 Oeste 0 -- -- 78
2018-05-07 21:00:00 19.1 7 Oeste 18 Oeste 0 -- -- 69
2018-05-07 20:00:00 19.9 8 Oeste 19 Oeste 0 -- -- 69
2018-05-07 19:00:00 20 9 Oeste 21 Noroeste 0 -- -- 70
2018-05-07 18:00:00 21.1 7 Oeste 17 Sudoeste 0 -- -- 62
2018-05-07 17:00:00 21.1 9 Sudoeste 23 Sudoeste 0 -- -- 63
2018-05-07 16:00:00 21.5 13 Oeste 33 Sudoeste 0 -- -- 64
2018-05-07 15:00:00 21.4 14 Sudoeste 22 Sudoeste 0 -- -- 65
2018-05-07 14:00:00 21.9 9 Oeste 17 Sudoeste 0 -- -- 65
2018-05-07 13:00:00 21.4 8 Sudoeste 15 Sudoeste 0 -- -- 66
2018-05-07 12:00:00 20.2 8 Sudoeste 14 Sudoeste 0 -- -- 69
2018-05-07 11:00:00 19.4 6 Sudoeste 14 Sudoeste 0 -- -- 73
2018-05-07 10:00:00 18.8 5 Oeste 11 Noroeste 0 -- -- 78
2018-05-07 09:00:00 17.2 2 Nordeste 6 Nordeste 0.2 -- -- 92
2018-05-07 08:00:00 16.2 4 Norte 9 Sudeste 0 -- -- 92
2018-05-07 07:00:00 16.8 6 Sudoeste 24 Oeste 1.8 -- -- 83
2018-05-07 06:00:00 17.6 12 Oeste 24 Oeste 0.2 -- -- 78
2018-05-07 05:00:00 16.6 5 Nordeste 19 Nordeste 0 -- -- 76
2018-05-07 04:00:00 15.3 6 Nordeste 10 Nordeste 0 -- -- 87
2018-05-07 03:00:00 15.4 5 Nordeste 10 Nordeste 0 -- -- 86
2018-05-07 02:00:00 15.7 5 Nordeste 12 Nordeste 0 -- -- 83
2018-05-07 01:00:00 15.7 9 Nordeste 12 Nordeste 0 -- -- 84
2018-05-07 00:00:00 16.3 5 Nordeste 8 Nordeste 0 -- -- 81
2018-05-06 23:00:00 17.5 3 Nordeste 6 Sudoeste 0 -- -- 78
2018-05-06 22:00:00 18.6 4 Oeste 17 Oeste 0 -- -- 72
2018-05-06 21:00:00 19.5 9 Oeste 23 Oeste 0 -- -- 70
2018-05-06 20:00:00 21.5 8 Oeste 18 Sur 0 -- -- 62
2018-05-06 19:00:00 21.5 10 Sudoeste 19 Sudoeste 0 -- -- 62
2018-05-06 18:00:00 21 6 Sudoeste 28 Sur 0 -- -- 70
2018-05-06 17:00:00 22.2 13 Sur 26 Sur 0 -- -- 65
2018-05-06 16:00:00 21.9 18 Sur 31 Sudeste 0 -- -- 65
2018-05-06 15:00:00 21.4 16 Sur 35 Sudeste 0 -- -- 64
2018-05-06 14:00:00 21.3 18 Sur 32 Sudeste 0 -- -- 61
2018-05-06 13:00:00 21.1 14 Sur 31 Sudeste 0 -- -- 60
2018-05-06 12:00:00 21 17 Sur 29 Sur 0 -- -- 56
2018-05-06 11:00:00 20.8 12 Sur 23 Sur 0 -- -- 54
2018-05-06 10:00:00 18.1 3 Sur 8 Sur 0 -- -- 72
2018-05-06 09:00:00 15.3 2 Nordeste 10 Nordeste 0 -- -- 84
2018-05-06 08:00:00 13.1 5 Nordeste 9 Nordeste 0 -- -- 92
2018-05-06 07:00:00 12.8 6 Nordeste 10 Nordeste 0 -- -- 92
2018-05-06 06:00:00 12.3 7 Norte 9 Norte 0 -- -- 92
2018-05-06 05:00:00 12.9 0 Calma 8 Nordeste 0 -- -- 90
2018-05-06 04:00:00 13.7 5 Nordeste 10 Nordeste 0 -- -- 89
2018-05-06 03:00:00 13.4 2 Norte 6 Nordeste 0 -- -- 90
2018-05-06 02:00:00 14.7 5 Nordeste 10 Nordeste 0 -- -- 89
2018-05-06 01:00:00 14.7 2 Norte 5 Nordeste 0 -- -- 88
2018-05-06 00:00:00 15.6 4 Nordeste 7 Nordeste 0 -- -- 86
2018-05-05 23:00:00 16.8 3 Norte 5 Norte 0 -- -- 82
2018-05-05 22:00:00 18.2 2 Sudeste 7 Sur 0 -- -- 78
2018-05-05 21:00:00 19 4 Sur 11 Sur 0 -- -- 70
2018-05-05 20:00:00 19.8 4 Sudoeste 11 Sur 0 -- -- 66
2018-05-05 19:00:00 20 5 Sur 13 Sudoeste 0 -- -- 64
2018-05-05 18:00:00 21.3 5 Sudoeste 16 Sur 0 -- -- 59
2018-05-05 17:00:00 21.1 9 Sudoeste 17 Sur 0 -- -- 60
2018-05-05 16:00:00 20.6 10 Sudoeste 16 Sur 0 -- -- 61
2018-05-05 15:00:00 20.5 8 Sudoeste 16 Oeste 0 -- -- 65
2018-05-05 14:00:00 20.5 9 Sudoeste 16 Sudoeste 0 -- -- 63
2018-05-05 13:00:00 19.3 6 Sudoeste 12 Sudoeste 0 -- -- 68
2018-05-05 12:00:00 18.7 5 Sudoeste 11 Sur 0 -- -- 72
2018-05-05 11:00:00 17.7 4 Sur 10 Sudoeste 0 -- -- 78
2018-05-05 10:00:00 16.6 0 Calma 8 Nordeste 0 -- -- 75
2018-05-05 09:00:00 14.9 0 Calma 9 Nordeste 0 -- -- 79
2018-05-05 08:00:00 13.5 3 Nordeste 12 Nordeste 0 -- -- 84
2018-05-05 07:00:00 12.5 8 Nordeste 12 Nordeste 0 -- -- 89
2018-05-05 06:00:00 12.6 5 Nordeste 14 Nordeste 0 -- -- 88
2018-05-05 05:00:00 13 7 Nordeste 11 Nordeste 0 -- -- 88
2018-05-05 04:00:00 13.3 4 Nordeste 12 Nordeste 0 -- -- 88
2018-05-05 03:00:00 13.2 6 Nordeste 8 Nordeste 0 -- -- 89
2018-05-05 02:00:00 13.5 6 Nordeste 10 Nordeste 0 -- -- 88
2018-05-05 01:00:00 13.7 6 Nordeste 8 Norte 0 -- -- 87
2018-05-05 00:00:00 14.7 6 Norte 8 Norte 0 -- -- 84
2018-05-04 23:00:00 16.6 4 Noroeste 14 Noroeste 0 -- -- 87
2018-05-04 22:00:00 16.8 5 Noroeste 9 Noroeste 0 -- -- 83
2018-05-04 21:00:00 18 5 Sudoeste 14 Sudeste 0 -- -- 79
2018-05-04 20:00:00 19.5 5 Sur 13 Sur 0 -- -- 66
2018-05-04 19:00:00 20.3 7 Sudoeste 16 Oeste 0 -- -- 59
2018-05-04 18:00:00 20.7 8 Sudoeste 19 Sudoeste 0 -- -- 58
2018-05-04 17:00:00 20.9 9 Oeste 21 Sur 0 -- -- 61
2018-05-04 16:00:00 21.4 8 Oeste 27 Sudoeste 0 -- -- 61
2018-05-04 15:00:00 21.4 18 Sur 30 Sur 0 -- -- 57
2018-05-04 14:00:00 19.6 14 Sur 33 Sudeste 0 -- -- 63
2018-05-04 13:00:00 22.7 19 Sur 35 Sudeste 0 -- -- 51
2018-05-04 12:00:00 21.2 13 Sur 24 Sur 0 -- -- 62
2018-05-04 11:00:00 20.2 9 Sur 16 Sudoeste 0 -- -- 62
2018-05-04 10:00:00 18.3 2 Sudeste 9 Sur 0 -- -- 70
2018-05-04 09:00:00 14.9 5 Norte 7 Norte 0 -- -- 94
2018-05-04 08:00:00 12.7 0 Calma 5 Norte 0 -- -- 91
2018-05-04 07:00:00 13 0 Calma 8 Nordeste 0 -- -- 90
2018-05-04 06:00:00 13.9 5 Norte 6 Norte 0 -- -- 92
2018-05-04 05:00:00 14.9 4 Oeste 8 Oeste 0 -- -- 93
2018-05-04 04:00:00 14.1 3 Noroeste 12 Sur 0 -- -- 89
2018-05-04 03:00:00 15.3 7 Este 16 Norte 0 -- -- 74
2018-05-04 02:00:00 12.7 0 Calma 6 Norte 0 -- -- 85
2018-05-04 01:00:00 13.2 2 Oeste 6 Norte 0 -- -- 81
2018-05-04 00:00:00 13.3 2 Norte 8 Norte 0 -- -- 79
2018-05-03 23:00:00 14.1 5 Norte 8 Norte 0 -- -- 75
2018-05-03 22:00:00 15.7 3 Nordeste 6 Noroeste 0 -- -- 77
2018-05-03 21:00:00 18.3 4 Noroeste 18 Sudoeste 0 -- -- 61
2018-05-03 20:00:00 19.3 9 Oeste 30 Oeste 0 -- -- 48
2018-05-03 19:00:00 19.4 14 Sudoeste 31 Oeste 0 -- -- 52
2018-05-03 18:00:00 19.6 15 Oeste 33 Oeste 0 -- -- 58
2018-05-03 17:00:00 19.5 15 Sudoeste 33 Sudoeste 0 -- -- 54
2018-05-03 16:00:00 19.7 13 Sudoeste 29 Sudoeste 0 -- -- 58
2018-05-03 15:00:00 20 14 Sudoeste 25 Sudoeste 0 -- -- 45
2018-05-03 14:00:00 20.2 12 Sudoeste 23 Sudoeste 0 -- -- 43
2018-05-03 13:00:00 20.1 13 Sudoeste 22 Sudoeste 0 -- -- 60
2018-05-03 12:00:00 20.7 8 Sudoeste 17 Oeste 0 -- -- 38
2018-05-03 11:00:00 21.9 3 Este 21 Nordeste 0 -- -- 38
2018-05-03 10:00:00 18.3 10 Nordeste 29 Nordeste 0 -- -- 46
2018-05-03 09:00:00 15.8 12 Nordeste 33 Nordeste 0 -- -- 51
2018-05-03 08:00:00 14.6 10 Nordeste 31 Nordeste 0 -- -- 53
2018-05-03 07:00:00 14.6 8 Nordeste 31 Nordeste 0 -- -- 54
2018-05-03 06:00:00 15.1 12 Nordeste 27 Nordeste 0 -- -- 52
2018-05-03 05:00:00 15.6 11 Nordeste 26 Nordeste 0 -- -- 51
2018-05-03 04:00:00 16 9 Nordeste 25 Nordeste 0 -- -- 50
2018-05-03 03:00:00 16.8 8 Norte 26 Nordeste 0 -- -- 47
2018-05-03 02:00:00 17.5 11 Norte 30 Nordeste 0 -- -- 44
2018-05-03 01:00:00 15.9 3 Nordeste 11 Norte 0 -- -- 52
2018-05-03 00:00:00 13.7 0 Calma 11 Norte 0 -- -- 80
2018-05-02 23:00:00 13.6 5 Norte 8 Norte 0 -- -- 82
2018-05-02 22:00:00 15.7 0 Calma 17 Sudoeste 0 -- -- 77
2018-05-02 21:00:00 17.2 6 Oeste 24 Oeste 0 -- -- 67
2018-05-02 20:00:00 18.1 11 Oeste 29 Noroeste 0 -- -- 60
2018-05-02 19:00:00 18.8 13 Oeste 29 Oeste 0 -- -- 61
2018-05-02 18:00:00 19.2 13 Oeste 31 Noroeste 0 -- -- 57
2018-05-02 17:00:00 18.8 11 Sudoeste 30 Oeste 0 -- -- 59
2018-05-02 16:00:00 18.5 15 Sudoeste 26 Sudoeste 0 -- -- 62
2018-05-02 15:00:00 18.4 13 Sudoeste 28 Sudoeste 0 -- -- 60
2018-05-02 14:00:00 17.7 16 Sudoeste 27 Sudoeste 0 -- -- 54
2018-05-02 13:00:00 18.2 13 Sudoeste 23 Oeste 0 -- -- 49
2018-05-02 12:00:00 18.2 10 Sudoeste 19 Sudoeste 0 -- -- 52
2018-05-02 11:00:00 16.8 10 Sudoeste 18 Noroeste 0 -- -- 58
2018-05-02 10:00:00 15.4 7 Noroeste 29 Nordeste 0 -- -- 57
2018-05-02 09:00:00 13.3 9 Nordeste 27 Nordeste 0 -- -- 60
2018-05-02 08:00:00 11.9 5 Nordeste 21 Nordeste 0 -- -- 63
2018-05-02 07:00:00 11.6 4 Nordeste 25 Nordeste 0 -- -- 63
2018-05-02 06:00:00 11.7 6 Nordeste 19 Nordeste 0 -- -- 63
2018-05-02 05:00:00 11.4 5 Nordeste 18 Norte 0 -- -- 65
2018-05-02 04:00:00 11.5 3 Nordeste 13 Nordeste 0 -- -- 66
2018-05-02 03:00:00 11.3 8 Nordeste 20 Nordeste 0 -- -- 68
2018-05-02 02:00:00 11.5 8 Nordeste 15 Nordeste 0 -- -- 68
2018-05-02 01:00:00 11.5 7 Nordeste 18 Nordeste 0 -- -- 69
2018-05-02 00:00:00 10.8 3 Nordeste 13 Norte 0 -- -- 75
2018-05-01 23:00:00 12.1 0 Calma 15 Noroeste 0 -- -- 69
2018-05-01 22:00:00 13 6 Noroeste 14 Sudoeste 0 -- -- 68
2018-05-01 21:00:00 14.6 7 Oeste 26 Oeste 0 -- -- 61
2018-05-01 20:00:00 15.9 11 Oeste 24 Oeste 0 -- -- 58
2018-05-01 19:00:00 16.7 12 Oeste 23 Oeste 0 -- -- 54
2018-05-01 18:00:00 16 4 Nordeste 27 Nordeste 0 -- -- 61
2018-05-01 17:00:00 11 10 Norte 57 Nordeste 1.6 -- -- 82
2018-05-01 16:00:00 14.2 26 Norte 54 Norte 0 -- -- 62
2018-05-01 15:00:00 18.5 15 Norte 26 Norte 0 -- -- 39
2018-05-01 14:00:00 18.3 9 Oeste 26 Sudoeste 0 -- -- 54
2018-05-01 13:00:00 18.5 11 Oeste 21 Sudoeste 0 -- -- 54
2018-05-01 12:00:00 18.9 8 Sudoeste 13 Sur 0 -- -- 41
2018-05-01 11:00:00 18.4 5 Sur 14 Nordeste 0 -- -- 38
2018-05-01 10:00:00 16.6 6 Nordeste 21 Nordeste 0 -- -- 51
2018-05-01 09:00:00 13.8 6 Nordeste 24 Nordeste 0 -- -- 58
2018-05-01 08:00:00 13.3 9 Nordeste 26 Nordeste 0 -- -- 58
2018-05-01 07:00:00 14 12 Nordeste 21 Nordeste 0 -- -- 53
2018-05-01 06:00:00 13.8 5 Nordeste 17 Nordeste 0 -- -- 52
2018-05-01 05:00:00 14.9 8 Nordeste 32 Nordeste 0 -- -- 47
2018-05-01 04:00:00 15.4 21 Nordeste 40 Nordeste 0 -- -- 45
2018-05-01 03:00:00 15.5 20 Nordeste 45 Nordeste 0 -- -- 47
2018-05-01 02:00:00 15.3 16 Norte 29 Norte 0 -- -- 49
2018-05-01 01:00:00 15.8 15 Noroeste 37 Norte 0 -- -- 46
2018-05-01 00:00:00 16.4 22 Noroeste 40 Norte 0 -- -- 42
2018-04-30 23:00:00 16.6 16 Noroeste 32 Noroeste 0 -- -- 41
2018-04-30 22:00:00 16.9 15 Noroeste 29 Oeste 0 -- -- 41
2018-04-30 21:00:00 17.4 10 Noroeste 28 Oeste 0 -- -- 41
2018-04-30 20:00:00 17.4 16 Oeste 36 Noroeste 0 -- -- 57
2018-04-30 19:00:00 17.5 19 Oeste 42 Oeste 0 -- -- 59
2018-04-30 18:00:00 18.1 21 Oeste 47 Oeste 0 -- -- 54
2018-04-30 17:00:00 17.9 23 Oeste 45 Oeste 0 -- -- 58
2018-04-30 16:00:00 17.7 16 Sudoeste 37 Sudoeste 0 -- -- 57
2018-04-30 15:00:00 17.8 18 Sudoeste 41 Oeste 0 -- -- 52
2018-04-30 14:00:00 18.4 17 Oeste 44 Sudoeste 0 -- -- 43
2018-04-30 13:00:00 18.3 14 Oeste 35 Sudoeste 0 -- -- 52
2018-04-30 12:00:00 17.6 11 Oeste 25 Sudoeste 0 -- -- 51
2018-04-30 11:00:00 16.4 6 Sudoeste 13 Sudoeste 0 -- -- 51
2018-04-30 10:00:00 15.1 0 Calma 12 Nordeste 0 -- -- 56
2018-04-30 09:00:00 13.6 3 Nordeste 23 Nordeste 0 -- -- 60
2018-04-30 08:00:00 12.2 12 Nordeste 21 Nordeste 0 -- -- 64
2018-04-30 07:00:00 11.1 11 Nordeste 18 Nordeste 0 -- -- 74
2018-04-30 06:00:00 8.5 0 Calma 8 Noroeste 0 -- -- 87
2018-04-30 05:00:00 9 4 Norte 6 Norte 0 -- -- 86
2018-04-30 04:00:00 10.3 2 Nordeste 8 Norte 0 -- -- 79
2018-04-30 03:00:00 11.6 5 Norte 10 Norte 0 -- -- 72
2018-04-30 02:00:00 13 0 Calma 15 Norte 0 -- -- 66
2018-04-30 01:00:00 15.1 8 Norte 26 Norte 0 -- -- 55
2018-04-30 00:00:00 15.4 14 Norte 29 Noroeste 0 -- -- 54
2018-04-29 23:00:00 13.5 6 Norte 10 Norte 0 -- -- 67
2018-04-29 22:00:00 15.7 6 Norte 26 Oeste 0 -- -- 62
2018-04-29 21:00:00 16.6 12 Oeste 33 Oeste 0 -- -- 60
2018-04-29 20:00:00 17.6 20 Oeste 43 Oeste 0 -- -- 57
2018-04-29 19:00:00 18.1 23 Oeste 50 Noroeste 0 -- -- 58
2018-04-29 18:00:00 18.5 22 Oeste 45 Oeste 0 -- -- 56
2018-04-29 17:00:00 18.6 22 Oeste 45 Oeste 0 -- -- 58
2018-04-29 16:00:00 19.4 23 Oeste 45 Oeste 0 -- -- 56
2018-04-29 15:00:00 18.8 21 Oeste 50 Oeste 0 -- -- 57
2018-04-29 14:00:00 18 22 Oeste 48 Oeste 0 -- -- 53
2018-04-29 13:00:00 18.9 22 Oeste 57 Oeste 0 -- -- 42
2018-04-29 12:00:00 18 20 Oeste 41 Oeste 0 -- -- 45
2018-04-29 11:00:00 17 20 Oeste 41 Oeste 0 -- -- 46
2018-04-29 10:00:00 16 20 Oeste 37 Noroeste 0 -- -- 47
2018-04-29 09:00:00 14.6 10 Oeste 26 Noroeste 0 -- -- 53
2018-04-29 08:00:00 13.8 12 Oeste 29 Noroeste 0 -- -- 55
2018-04-29 07:00:00 13.6 10 Noroeste 23 Noroeste 0 -- -- 55
2018-04-29 06:00:00 12.5 6 Noroeste 19 Oeste 0 -- -- 75
2018-04-29 05:00:00 13.6 8 Noroeste 22 Oeste 0 -- -- 78
2018-04-29 04:00:00 14.1 7 Oeste 31 Oeste 0 -- -- 74
2018-04-29 03:00:00 14.7 14 Oeste 32 Oeste 0 -- -- 75
2018-04-29 02:00:00 14.8 13 Noroeste 38 Noroeste 0 -- -- 68
2018-04-29 01:00:00 15.1 21 Noroeste 43 Noroeste 0 -- -- 67
2018-04-29 00:00:00 16.1 14 Oeste 35 Oeste 0 -- -- 67
2018-04-28 23:00:00 16.4 17 Oeste 36 Oeste 0 -- -- 58
2018-04-28 22:00:00 17.2 19 Oeste 36 Oeste 0 -- -- 52
2018-04-28 21:00:00 18.4 9 Oeste 35 Sudoeste 0 -- -- 44
2018-04-28 20:00:00 19.3 13 Oeste 39 Oeste 0 -- -- 50
2018-04-28 19:00:00 20.1 14 Oeste 39 Oeste 0 -- -- 54
2018-04-28 18:00:00 20.2 20 Oeste 36 Sudoeste 0 -- -- 56
2018-04-28 17:00:00 20.3 20 Oeste 45 Oeste 0 -- -- 58
2018-04-28 16:00:00 20 21 Oeste 49 Oeste 0 -- -- 62
2018-04-28 15:00:00 19.8 23 Oeste 44 Noroeste 0 -- -- 64
2018-04-28 14:00:00 19.6 18 Oeste 44 Oeste 0 -- -- 69
2018-04-28 13:00:00 19.7 21 Sudoeste 43 Sudoeste 0 -- -- 65
2018-04-28 12:00:00 20.2 15 Oeste 34 Oeste 0 -- -- 64
2018-04-28 11:00:00 19.4 12 Oeste 24 Oeste 0 -- -- 72
2018-04-28 10:00:00 17.7 11 Oeste 19 Oeste 0 -- -- 84
2018-04-28 09:00:00 15.3 4 Oeste 11 Oeste 0 -- -- 99
2018-04-28 08:00:00 12.7 0 Calma 4 Noroeste 0 -- -- 97
2018-04-28 07:00:00 12.9 0 Calma 4 Norte 0 -- -- 96
2018-04-28 06:00:00 13.5 0 Calma 4 Nordeste 0 -- -- 96
2018-04-28 05:00:00 14.3 0 Calma 7 Noroeste 0 -- -- 95
2018-04-28 04:00:00 15 5 Noroeste 8 Oeste 0 -- -- 96
2018-04-28 03:00:00 14.1 3 Noroeste 5 Norte 0 -- -- 94
2018-04-28 02:00:00 14.9 0 Calma 4 Noroeste 0 -- -- 94
2018-04-28 01:00:00 15.4 3 Noroeste 8 Nordeste 0 -- -- 93
2018-04-28 00:00:00 15.9 4 Norte 5 Norte 0 -- -- 92
2018-04-27 23:00:00 16.5 0 Calma 4 Norte 0 -- -- 89
2018-04-27 22:00:00 17.5 0 Calma 2 Nordeste 0 -- -- 87
2018-04-27 21:00:00 18.8 0 Calma 9 Sur 0 -- -- 79
2018-04-27 20:00:00 19 3 Sur 9 Sur 0 -- -- 77
2018-04-27 19:00:00 20.5 4 Sudoeste 17 Sudoeste 0 -- -- 70
2018-04-27 18:00:00 21.6 5 Sudoeste 19 Sur 0 -- -- 66
2018-04-27 17:00:00 20.8 13 Sur 22 Sur 0 -- -- 69
2018-04-27 16:00:00 21.2 13 Sur 25 Sudoeste 0 -- -- 68
2018-04-27 15:00:00 20.7 14 Sudoeste 29 Sudoeste 0 -- -- 66
2018-04-27 14:00:00 21.1 14 Sudoeste 32 Sudoeste 0 -- -- 64
2018-04-27 13:00:00 20.3 16 Sudoeste 39 Sudoeste 0 -- -- 71
2018-04-27 12:00:00 20.9 13 Oeste 27 Oeste 0 -- -- 70
2018-04-27 11:00:00 19.6 13 Oeste 23 Sudoeste 0 -- -- 77
2018-04-27 10:00:00 17.7 5 Oeste 12 Oeste 0 -- -- 89
2018-04-27 09:00:00 15.2 4 Nordeste 9 Norte 0 -- -- 97
2018-04-27 08:00:00 13.6 4 Norte 9 Nordeste 0 -- -- 97
2018-04-27 07:00:00 13.6 6 Norte 9 Nordeste 0 -- -- 97
2018-04-27 06:00:00 14.1 4 Norte 7 Norte 0 -- -- 96
2018-04-27 05:00:00 15.1 3 Norte 8 Norte 0 -- -- 97
2018-04-27 04:00:00 15.1 5 Nordeste 8 Nordeste 0 -- -- 96
2018-04-27 03:00:00 15.4 0 Calma 8 Nordeste 0 -- -- 96
2018-04-27 02:00:00 15.6 3 Nordeste 5 Nordeste 0 -- -- 94
2018-04-27 01:00:00 16.9 3 Norte 14 Oeste 0 -- -- 91
2018-04-27 00:00:00 17.3 3 Oeste 15 Oeste 0 -- -- 93
2018-04-26 23:00:00 17.4 4 Sudoeste 8 Sur 0 -- -- 94
2018-04-26 22:00:00 17.4 0 Calma 8 Sur 0 -- -- 91
2018-04-26 21:00:00 17.8 0 Calma 8 Sudoeste 0 -- -- 90
2018-04-26 20:00:00 18.3 5 Sudoeste 11 Sur 0 -- -- 88
2018-04-26 19:00:00 19 7 Sur 10 Sur 0 -- -- 82
2018-04-26 18:00:00 18.9 5 Sur 12 Sudoeste 0 -- -- 80
2018-04-26 17:00:00 19.2 8 Sudoeste 13 Sudoeste 0 -- -- 81
2018-04-26 16:00:00 19.3 8 Sudoeste 13 Sudoeste 0 -- -- 85
2018-04-26 15:00:00 19 6 Sudoeste 14 Sudoeste 0 -- -- 83
2018-04-26 14:00:00 19.6 7 Sur 17 Sur 0 -- -- 83
2018-04-26 13:00:00 19.5 5 Sudoeste 18 Sur 0 -- -- 82
2018-04-26 12:00:00 19.8 10 Sur 16 Sur 0 -- -- 83
2018-04-26 11:00:00 17.8 4 Sudoeste 10 Sur 0 -- -- 91
2018-04-26 10:00:00 17.1 5 Sur 8 Sudeste 0 -- -- 95
2018-04-26 09:00:00 15.8 2 Noroeste 6 Noroeste 0 -- -- 98
2018-04-26 08:00:00 14.6 2 Nordeste 10 Nordeste 0 -- -- 97
2018-04-26 07:00:00 14.4 4 Norte 8 Nordeste 0 -- -- 97
2018-04-26 06:00:00 14.5 5 Norte 8 Norte 0 -- -- 98
2018-04-26 05:00:00 14.8 5 Norte 8 Norte 0 -- -- 97
2018-04-26 04:00:00 15.5 5 Norte 8 Norte 0 -- -- 98
2018-04-26 03:00:00 16.1 0 Calma 5 Nordeste 0 -- -- 98
2018-04-26 02:00:00 16.1 3 Norte 5 Norte 0 -- -- 98
2018-04-26 01:00:00 16.4 0 Calma 6 Noroeste 0.2 -- -- 98
2018-04-26 00:00:00 16.4 0 Calma 4 Norte 0.2 -- -- 97
2018-04-25 23:00:00 16.5 0 Calma 3 Sur 0 -- -- 97
2018-04-25 22:00:00 16.7 0 Calma 5 Noroeste 0 -- -- 96
2018-04-25 21:00:00 16.8 0 Calma 5 Norte 0 -- -- 96
2018-04-25 20:00:00 16.9 3 Noroeste 8 Noroeste 0 -- -- 95
2018-04-25 19:00:00 17.1 4 Noroeste 7 Oeste 0 -- -- 94
2018-04-25 18:00:00 17.2 4 Sur 10 Sudoeste 0 -- -- 93
2018-04-25 17:00:00 17.3 6 Sudoeste 11 Sudoeste 0 -- -- 91
2018-04-25 16:00:00 17.7 5 Oeste 13 Oeste 0 -- -- 92
2018-04-25 15:00:00 17.5 6 Sudoeste 13 Oeste 0.2 -- -- 92
2018-04-25 14:00:00 17.5 5 Oeste 14 Sudoeste 0.6 -- -- 90
2018-04-25 13:00:00 18 9 Sur 16 Oeste 0 -- -- 86
2018-04-25 12:00:00 18 9 Oeste 19 Oeste 0 -- -- 88
2018-04-25 11:00:00 17 0 Calma 9 Oeste 0.2 -- -- 94
2018-04-25 10:00:00 16.7 2 Nordeste 8 Norte 2 -- -- 95
2018-04-25 09:00:00 16.6 3 Noroeste 21 Sudeste 1.2 -- -- 91
2018-04-25 08:00:00 16.1 3 Sudeste 11 Sur 0 -- -- 92
2018-04-25 07:00:00 16 3 Noroeste 9 Oeste 0 -- -- 91
2018-04-25 06:00:00 16.6 4 Sudoeste 10 Noroeste 0 -- -- 89
2018-04-25 05:00:00 16.2 4 Norte 12 Norte 0 -- -- 90
2018-04-25 04:00:00 15.8 6 Norte 12 Norte 0 -- -- 92
2018-04-25 03:00:00 16.3 4 Norte 13 Noroeste 0 -- -- 90
2018-04-25 02:00:00 17.2 8 Oeste 25 Noroeste 0 -- -- 86
2018-04-25 01:00:00 17.1 16 Oeste 30 Oeste 0 -- -- 88
2018-04-25 00:00:00 16.5 8 Sur 24 Oeste 0 -- -- 89